sensor_id;sensor_type;location;lat;lon;timestamp;temperature;humidity
26186;DHT22;20067;48.764;9.176;2023-02-20T00:01:51;9.60;91.30
26186;DHT22;20067;48.764;9.176;2023-02-20T00:04:17;9.60;91.30
26186;DHT22;20067;48.764;9.176;2023-02-20T00:06:43;9.60;91.30
26186;DHT22;20067;48.764;9.176;2023-02-20T00:09:09;9.60;91.30
26186;DHT22;20067;48.764;9.176;2023-02-20T00:11:35;9.60;91.30
26186;DHT22;20067;48.764;9.176;2023-02-20T00:14:00;9.60;91.30
26186;DHT22;20067;48.764;9.176;2023-02-20T00:16:26;9.60;91.30
26186;DHT22;20067;48.764;9.176;2023-02-20T00:18:52;9.60;91.30
26186;DHT22;20067;48.764;9.176;2023-02-20T00:21:17;9.60;91.30
26186;DHT22;20067;48.764;9.176;2023-02-20T00:23:43;9.60;91.30
26186;DHT22;20067;48.764;9.176;2023-02-20T00:26:10;9.50;91.30
26186;DHT22;20067;48.764;9.176;2023-02-20T00:28:40;9.50;91.30
26186;DHT22;20067;48.764;9.176;2023-02-20T00:31:07;9.40;91.30
26186;DHT22;20067;48.764;9.176;2023-02-20T00:33:33;9.40;91.30
26186;DHT22;20067;48.764;9.176;2023-02-20T00:35:59;9.40;91.30
26186;DHT22;20067;48.764;9.176;2023-02-20T00:38:25;9.40;91.30
26186;DHT22;20067;48.764;9.176;2023-02-20T00:40:50;9.30;91.30
26186;DHT22;20067;48.764;9.176;2023-02-20T00:43:16;9.30;91.30
26186;DHT22;20067;48.764;9.176;2023-02-20T00:45:41;9.40;91.30
26186;DHT22;20067;48.764;9.176;2023-02-20T00:48:07;9.30;91.30
26186;DHT22;20067;48.764;9.176;2023-02-20T00:50:33;9.40;91.30
26186;DHT22;20067;48.764;9.176;2023-02-20T00:52:58;9.40;91.30
26186;DHT22;20067;48.764;9.176;2023-02-20T00:55:24;9.40;91.30
26186;DHT22;20067;48.764;9.176;2023-02-20T00:57:50;9.40;91.30
26186;DHT22;20067;48.764;9.176;2023-02-20T01:00:22;9.40;91.30
26186;DHT22;20067;48.764;9.176;2023-02-20T01:02:48;9.40;91.30
26186;DHT22;20067;48.764;9.176;2023-02-20T01:05:14;9.40;91.30
26186;DHT22;20067;48.764;9.176;2023-02-20T01:07:40;9.40;91.30
26186;DHT22;20067;48.764;9.176;2023-02-20T01:10:06;9.30;91.30
26186;DHT22;20067;48.764;9.176;2023-02-20T01:12:32;9.30;91.30
26186;DHT22;20067;48.764;9.176;2023-02-20T01:14:57;9.30;91.30
26186;DHT22;20067;48.764;9.176;2023-02-20T01:17:23;9.30;91.30
26186;DHT22;20067;48.764;9.176;2023-02-20T01:19:48;9.30;91.30
26186;DHT22;20067;48.764;9.176;2023-02-20T01:22:14;9.20;91.30
26186;DHT22;20067;48.764;9.176;2023-02-20T01:24:40;9.20;91.30
26186;DHT22;20067;48.764;9.176;2023-02-20T01:27:08;9.20;91.30
26186;DHT22;20067;48.764;9.176;2023-02-20T01:29:33;9.10;91.30
26186;DHT22;20067;48.764;9.176;2023-02-20T01:31:59;9.10;91.30
26186;DHT22;20067;48.764;9.176;2023-02-20T01:34:25;9.10;91.30
26186;DHT22;20067;48.764;9.176;2023-02-20T01:36:52;9.10;91.30
26186;DHT22;20067;48.764;9.176;2023-02-20T01:39:20;9.10;91.30
26186;DHT22;20067;48.764;9.176;2023-02-20T01:41:48;9.10;91.30
26186;DHT22;20067;48.764;9.176;2023-02-20T01:44:24;9.10;91.30
26186;DHT22;20067;48.764;9.176;2023-02-20T01:46:53;9.00;91.30
26186;DHT22;20067;48.764;9.176;2023-02-20T01:49:35;9.00;91.30
26186;DHT22;20067;48.764;9.176;2023-02-20T01:52:14;9.00;91.30
26186;DHT22;20067;48.764;9.176;2023-02-20T01:54:42;9.00;91.30
26186;DHT22;20067;48.764;9.176;2023-02-20T01:57:14;9.00;91.30
26186;DHT22;20067;48.764;9.176;2023-02-20T01:59:42;9.00;91.30
26186;DHT22;20067;48.764;9.176;2023-02-20T02:02:09;9.00;91.30
26186;DHT22;20067;48.764;9.176;2023-02-20T02:04:36;9.00;91.30
26186;DHT22;20067;48.764;9.176;2023-02-20T02:07:04;9.00;91.10
26186;DHT22;20067;48.764;9.176;2023-02-20T02:09:41;9.00;91.00
26186;DHT22;20067;48.764;9.176;2023-02-20T02:12:08;9.00;91.10
26186;DHT22;20067;48.764;9.176;2023-02-20T02:14:34;9.00;91.20
26186;DHT22;20067;48.764;9.176;2023-02-20T02:19:54;9.00;90.80
26186;DHT22;20067;48.764;9.176;2023-02-20T02:28:12;9.10;90.50
26186;DHT22;20067;48.764;9.176;2023-02-20T02:36:48;9.10;91.10
26186;DHT22;20067;48.764;9.176;2023-02-20T02:39:28;9.10;91.30
26186;DHT22;20067;48.764;9.176;2023-02-20T02:42:39;9.20;91.30
26186;DHT22;20067;48.764;9.176;2023-02-20T02:45:21;9.20;91.30
26186;DHT22;20067;48.764;9.176;2023-02-20T02:50:27;9.20;91.30
26186;DHT22;20067;48.764;9.176;2023-02-20T02:52:54;9.20;91.30
26186;DHT22;20067;48.764;9.176;2023-02-20T02:57:47;9.20;91.30
26186;DHT22;20067;48.764;9.176;2023-02-20T03:00:14;9.20;91.30
26186;DHT22;20067;48.764;9.176;2023-02-20T03:05:18;9.20;91.30
26186;DHT22;20067;48.764;9.176;2023-02-20T03:07:49;9.20;91.30
26186;DHT22;20067;48.764;9.176;2023-02-20T03:10:20;9.30;91.30
26186;DHT22;20067;48.764;9.176;2023-02-20T03:12:59;9.30;91.10
26186;DHT22;20067;48.764;9.176;2023-02-20T03:15:49;9.20;91.30
26186;DHT22;20067;48.764;9.176;2023-02-20T03:20:48;9.10;91.30
26186;DHT22;20067;48.764;9.176;2023-02-20T03:23:28;9.00;91.30
26186;DHT22;20067;48.764;9.176;2023-02-20T03:26:17;9.00;91.30
26186;DHT22;20067;48.764;9.176;2023-02-20T03:29:10;9.00;91.30
26186;DHT22;20067;48.764;9.176;2023-02-20T03:31:53;9.00;91.30
26186;DHT22;20067;48.764;9.176;2023-02-20T03:34:39;9.00;91.30
26186;DHT22;20067;48.764;9.176;2023-02-20T03:37:27;8.90;91.30
26186;DHT22;20067;48.764;9.176;2023-02-20T03:40:15;8.80;91.30
26186;DHT22;20067;48.764;9.176;2023-02-20T03:43:04;8.80;91.30
26186;DHT22;20067;48.764;9.176;2023-02-20T03:45:52;8.80;91.30
26186;DHT22;20067;48.764;9.176;2023-02-20T03:48:33;8.80;91.30
26186;DHT22;20067;48.764;9.176;2023-02-20T03:51:01;8.80;91.30
26186;DHT22;20067;48.764;9.176;2023-02-20T03:53:27;8.90;91.30
26186;DHT22;20067;48.764;9.176;2023-02-20T03:55:56;8.80;91.30
26186;DHT22;20067;48.764;9.176;2023-02-20T03:58:25;8.90;91.30
26186;DHT22;20067;48.764;9.176;2023-02-20T04:00:54;8.90;91.30
26186;DHT22;20067;48.764;9.176;2023-02-20T04:03:26;8.90;91.30
26186;DHT22;20067;48.764;9.176;2023-02-20T04:05:54;8.80;91.30
26186;DHT22;20067;48.764;9.176;2023-02-20T04:08:23;8.80;91.30
26186;DHT22;20067;48.764;9.176;2023-02-20T04:10:56;8.70;91.30
26186;DHT22;20067;48.764;9.176;2023-02-20T04:13:23;8.60;91.30
26186;DHT22;20067;48.764;9.176;2023-02-20T04:15:51;8.50;91.30
26186;DHT22;20067;48.764;9.176;2023-02-20T04:18:18;8.50;91.30
26186;DHT22;20067;48.764;9.176;2023-02-20T04:20:52;8.40;91.30
26186;DHT22;20067;48.764;9.176;2023-02-20T04:23:20;8.40;91.30
26186;DHT22;20067;48.764;9.176;2023-02-20T04:25:54;8.30;91.30
26186;DHT22;20067;48.764;9.176;2023-02-20T04:28:22;8.30;91.30
26186;DHT22;20067;48.764;9.176;2023-02-20T04:30:49;8.20;91.30
26186;DHT22;20067;48.764;9.176;2023-02-20T04:33:15;8.20;91.30
26186;DHT22;20067;48.764;9.176;2023-02-20T04:35:41;8.20;91.30
26186;DHT22;20067;48.764;9.176;2023-02-20T04:38:08;8.20;91.30
26186;DHT22;20067;48.764;9.176;2023-02-20T04:40:33;8.20;91.30
26186;DHT22;20067;48.764;9.176;2023-02-20T04:42:59;8.10;91.30
26186;DHT22;20067;48.764;9.176;2023-02-20T04:45:25;8.10;91.30
26186;DHT22;20067;48.764;9.176;2023-02-20T04:47:51;8.10;91.30
26186;DHT22;20067;48.764;9.176;2023-02-20T04:50:23;8.10;91.30
26186;DHT22;20067;48.764;9.176;2023-02-20T04:52:49;8.10;91.30
26186;DHT22;20067;48.764;9.176;2023-02-20T04:55:15;8.10;91.30
26186;DHT22;20067;48.764;9.176;2023-02-20T04:57:41;8.10;91.30
26186;DHT22;20067;48.764;9.176;2023-02-20T05:00:07;8.10;91.30
26186;DHT22;20067;48.764;9.176;2023-02-20T05:02:37;8.10;91.30
26186;DHT22;20067;48.764;9.176;2023-02-20T05:05:04;8.10;91.30
26186;DHT22;20067;48.764;9.176;2023-02-20T05:07:32;8.10;91.30
26186;DHT22;20067;48.764;9.176;2023-02-20T05:09:57;8.00;91.30
26186;DHT22;20067;48.764;9.176;2023-02-20T05:12:23;8.10;91.30
26186;DHT22;20067;48.764;9.176;2023-02-20T05:14:48;8.10;91.30
26186;DHT22;20067;48.764;9.176;2023-02-20T05:17:14;8.10;91.30
26186;DHT22;20067;48.764;9.176;2023-02-20T05:19:41;8.10;91.30
26186;DHT22;20067;48.764;9.176;2023-02-20T05:22:10;8.10;91.30
26186;DHT22;20067;48.764;9.176;2023-02-20T05:24:47;8.00;91.30
26186;DHT22;20067;48.764;9.176;2023-02-20T05:27:15;8.00;91.30
26186;DHT22;20067;48.764;9.176;2023-02-20T05:29:54;8.00;91.30
26186;DHT22;20067;48.764;9.176;2023-02-20T05:32:22;8.00;91.30
26186;DHT22;20067;48.764;9.176;2023-02-20T05:34:48;7.90;91.30
26186;DHT22;20067;48.764;9.176;2023-02-20T05:37:15;7.80;91.30
26186;DHT22;20067;48.764;9.176;2023-02-20T05:39:41;7.70;91.30
26186;DHT22;20067;48.764;9.176;2023-02-20T05:42:07;7.70;91.30
26186;DHT22;20067;48.764;9.176;2023-02-20T05:44:34;7.60;91.30
26186;DHT22;20067;48.764;9.176;2023-02-20T05:47:00;7.60;91.30
26186;DHT22;20067;48.764;9.176;2023-02-20T05:49:26;7.60;91.30
26186;DHT22;20067;48.764;9.176;2023-02-20T05:51:55;7.60;91.30
26186;DHT22;20067;48.764;9.176;2023-02-20T05:54:21;7.50;91.30
26186;DHT22;20067;48.764;9.176;2023-02-20T05:56:47;7.50;91.30
26186;DHT22;20067;48.764;9.176;2023-02-20T05:59:16;7.50;91.30
26186;DHT22;20067;48.764;9.176;2023-02-20T06:01:42;7.40;91.30
26186;DHT22;20067;48.764;9.176;2023-02-20T06:04:08;7.40;91.30
26186;DHT22;20067;48.764;9.176;2023-02-20T06:06:34;7.30;91.30
26186;DHT22;20067;48.764;9.176;2023-02-20T06:09:00;7.30;91.30
26186;DHT22;20067;48.764;9.176;2023-02-20T06:11:26;7.40;91.30
26186;DHT22;20067;48.764;9.176;2023-02-20T06:13:52;7.40;91.30
26186;DHT22;20067;48.764;9.176;2023-02-20T06:16:26;7.30;91.30
26186;DHT22;20067;48.764;9.176;2023-02-20T06:18:52;7.30;91.30
26186;DHT22;20067;48.764;9.176;2023-02-20T06:21:19;7.40;91.30
26186;DHT22;20067;48.764;9.176;2023-02-20T06:23:48;7.40;91.30
26186;DHT22;20067;48.764;9.176;2023-02-20T06:26:15;7.40;91.30
26186;DHT22;20067;48.764;9.176;2023-02-20T06:28:41;7.40;91.30
26186;DHT22;20067;48.764;9.176;2023-02-20T06:31:08;7.40;91.30
26186;DHT22;20067;48.764;9.176;2023-02-20T06:33:34;7.40;91.30
26186;DHT22;20067;48.764;9.176;2023-02-20T06:36:00;7.30;91.30
26186;DHT22;20067;48.764;9.176;2023-02-20T06:38:26;7.30;91.30
26186;DHT22;20067;48.764;9.176;2023-02-20T06:40:52;7.30;91.30
26186;DHT22;20067;48.764;9.176;2023-02-20T06:43:18;7.30;91.30
26186;DHT22;20067;48.764;9.176;2023-02-20T06:45:45;7.40;91.30
26186;DHT22;20067;48.764;9.176;2023-02-20T06:48:11;7.30;91.30
26186;DHT22;20067;48.764;9.176;2023-02-20T06:50:39;7.40;91.30
26186;DHT22;20067;48.764;9.176;2023-02-20T06:53:05;7.40;91.30
26186;DHT22;20067;48.764;9.176;2023-02-20T06:55:30;7.40;91.30
26186;DHT22;20067;48.764;9.176;2023-02-20T06:57:57;7.40;91.30
26186;DHT22;20067;48.764;9.176;2023-02-20T07:00:23;7.40;91.30
26186;DHT22;20067;48.764;9.176;2023-02-20T07:02:48;7.40;91.30
26186;DHT22;20067;48.764;9.176;2023-02-20T07:05:14;7.40;91.30
26186;DHT22;20067;48.764;9.176;2023-02-20T07:07:40;7.40;91.30
26186;DHT22;20067;48.764;9.176;2023-02-20T07:10:06;7.40;91.30
26186;DHT22;20067;48.764;9.176;2023-02-20T07:12:32;7.50;91.30
26186;DHT22;20067;48.764;9.176;2023-02-20T07:14:58;7.50;91.30
26186;DHT22;20067;48.764;9.176;2023-02-20T07:17:24;7.60;91.30
26186;DHT22;20067;48.764;9.176;2023-02-20T07:19:50;7.60;91.30
26186;DHT22;20067;48.764;9.176;2023-02-20T07:22:16;7.60;91.30
26186;DHT22;20067;48.764;9.176;2023-02-20T07:24:42;7.60;91.30
26186;DHT22;20067;48.764;9.176;2023-02-20T07:27:08;7.70;91.30
26186;DHT22;20067;48.764;9.176;2023-02-20T07:29:38;7.70;91.30
26186;DHT22;20067;48.764;9.176;2023-02-20T07:32:05;7.70;91.30
26186;DHT22;20067;48.764;9.176;2023-02-20T07:34:33;7.70;91.30
26186;DHT22;20067;48.764;9.176;2023-02-20T07:36:59;7.80;91.30
26186;DHT22;20067;48.764;9.176;2023-02-20T07:39:25;7.80;91.30
26186;DHT22;20067;48.764;9.176;2023-02-20T07:41:52;7.90;91.30
26186;DHT22;20067;48.764;9.176;2023-02-20T07:44:20;7.90;91.30
26186;DHT22;20067;48.764;9.176;2023-02-20T07:46:45;7.90;91.30
26186;DHT22;20067;48.764;9.176;2023-02-20T07:49:11;7.90;91.30
26186;DHT22;20067;48.764;9.176;2023-02-20T07:51:37;8.00;91.30
26186;DHT22;20067;48.764;9.176;2023-02-20T07:54:02;8.10;91.30
26186;DHT22;20067;48.764;9.176;2023-02-20T07:56:28;8.10;91.30
26186;DHT22;20067;48.764;9.176;2023-02-20T07:58:54;8.10;91.30
26186;DHT22;20067;48.764;9.176;2023-02-20T08:01:20;8.20;91.30
26186;DHT22;20067;48.764;9.176;2023-02-20T08:03:46;8.20;91.30
26186;DHT22;20067;48.764;9.176;2023-02-20T08:06:12;8.20;91.20
26186;DHT22;20067;48.764;9.176;2023-02-20T08:08:40;8.30;91.30
26186;DHT22;20067;48.764;9.176;2023-02-20T08:11:06;8.40;90.80
26186;DHT22;20067;48.764;9.176;2023-02-20T08:13:32;8.50;90.50
26186;DHT22;20067;48.764;9.176;2023-02-20T08:15:57;8.60;90.30
26186;DHT22;20067;48.764;9.176;2023-02-20T08:18:23;8.60;90.00
26186;DHT22;20067;48.764;9.176;2023-02-20T08:20:48;8.60;89.70
26186;DHT22;20067;48.764;9.176;2023-02-20T08:23:19;8.70;89.40
26186;DHT22;20067;48.764;9.176;2023-02-20T08:25:45;8.70;89.30
26186;DHT22;20067;48.764;9.176;2023-02-20T08:28:11;8.80;89.10
26186;DHT22;20067;48.764;9.176;2023-02-20T08:30:37;9.00;88.80
26186;DHT22;20067;48.764;9.176;2023-02-20T08:33:03;9.10;88.30
26186;DHT22;20067;48.764;9.176;2023-02-20T08:35:31;9.30;87.60
26186;DHT22;20067;48.764;9.176;2023-02-20T08:38:05;10.20;85.40
26186;DHT22;20067;48.764;9.176;2023-02-20T08:40:31;11.40;82.20
26186;DHT22;20067;48.764;9.176;2023-02-20T08:42:57;13.10;78.70
26186;DHT22;20067;48.764;9.176;2023-02-20T08:45:23;14.90;73.10
26186;DHT22;20067;48.764;9.176;2023-02-20T08:47:49;15.20;69.80
26186;DHT22;20067;48.764;9.176;2023-02-20T08:50:16;14.20;71.50
26186;DHT22;20067;48.764;9.176;2023-02-20T08:52:43;14.70;71.10
26186;DHT22;20067;48.764;9.176;2023-02-20T08:55:09;14.80;70.70
26186;DHT22;20067;48.764;9.176;2023-02-20T08:57:35;15.00;69.50
26186;DHT22;20067;48.764;9.176;2023-02-20T09:00:01;14.40;71.20
26186;DHT22;20067;48.764;9.176;2023-02-20T09:02:26;14.90;70.50
26186;DHT22;20067;48.764;9.176;2023-02-20T09:04:56;15.40;69.30
26186;DHT22;20067;48.764;9.176;2023-02-20T09:07:22;17.10;66.50
26186;DHT22;20067;48.764;9.176;2023-02-20T09:09:48;19.10;62.10
26186;DHT22;20067;48.764;9.176;2023-02-20T09:12:17;20.30;59.60
26186;DHT22;20067;48.764;9.176;2023-02-20T09:14:42;21.60;56.30
26186;DHT22;20067;48.764;9.176;2023-02-20T09:17:08;21.70;55.00
26186;DHT22;20067;48.764;9.176;2023-02-20T09:19:34;22.10;54.80
26186;DHT22;20067;48.764;9.176;2023-02-20T09:22:00;23.40;52.60
26186;DHT22;20067;48.764;9.176;2023-02-20T09:24:26;24.40;49.70
26186;DHT22;20067;48.764;9.176;2023-02-20T09:26:59;23.80;50.10
26186;DHT22;20067;48.764;9.176;2023-02-20T09:29:26;22.70;50.70
26186;DHT22;20067;48.764;9.176;2023-02-20T09:31:51;21.90;52.00
26186;DHT22;20067;48.764;9.176;2023-02-20T09:34:17;20.80;55.00
26186;DHT22;20067;48.764;9.176;2023-02-20T09:36:43;19.90;56.00
26186;DHT22;20067;48.764;9.176;2023-02-20T09:39:09;20.20;55.90
26186;DHT22;20067;48.764;9.176;2023-02-20T09:44:41;17.20;61.70
26186;DHT22;20067;48.764;9.176;2023-02-20T09:47:31;17.90;61.70
26186;DHT22;20067;48.764;9.176;2023-02-20T09:50:02;19.10;58.60
26186;DHT22;20067;48.764;9.176;2023-02-20T09:52:30;19.30;57.40
26186;DHT22;20067;48.764;9.176;2023-02-20T09:55:13;18.10;59.70
26186;DHT22;20067;48.764;9.176;2023-02-20T09:57:46;18.20;59.70
26186;DHT22;20067;48.764;9.176;2023-02-20T10:00:30;18.80;59.30
26186;DHT22;20067;48.764;9.176;2023-02-20T10:05:36;19.40;57.40
26186;DHT22;20067;48.764;9.176;2023-02-20T10:08:02;19.30;57.80
26186;DHT22;20067;48.764;9.176;2023-02-20T10:10:32;19.30;57.50
26186;DHT22;20067;48.764;9.176;2023-02-20T10:16:02;18.70;58.30
26186;DHT22;20067;48.764;9.176;2023-02-20T10:19:22;17.10;60.60
26186;DHT22;20067;48.764;9.176;2023-02-20T10:22:02;15.70;64.20
26186;DHT22;20067;48.764;9.176;2023-02-20T10:29:55;17.20;62.70
26186;DHT22;20067;48.764;9.176;2023-02-20T10:32:44;17.60;61.30
26186;DHT22;20067;48.764;9.176;2023-02-20T10:35:21;17.80;61.20
26186;DHT22;20067;48.764;9.176;2023-02-20T10:37:53;18.10;61.20
26186;DHT22;20067;48.764;9.176;2023-02-20T10:40:44;18.80;59.00
26186;DHT22;20067;48.764;9.176;2023-02-20T10:43:19;19.10;59.00
26186;DHT22;20067;48.764;9.176;2023-02-20T10:45:57;19.60;57.50
26186;DHT22;20067;48.764;9.176;2023-02-20T10:48:29;20.10;57.30
26186;DHT22;20067;48.764;9.176;2023-02-20T10:54:06;20.00;56.50
26186;DHT22;20067;48.764;9.176;2023-02-20T10:57:05;19.60;57.20
26186;DHT22;20067;48.764;9.176;2023-02-20T10:59:50;20.00;56.90
26186;DHT22;20067;48.764;9.176;2023-02-20T11:02:26;21.90;53.50
26186;DHT22;20067;48.764;9.176;2023-02-20T11:05:17;22.20;52.20
26186;DHT22;20067;48.764;9.176;2023-02-20T11:07:44;22.60;52.40
26186;DHT22;20067;48.764;9.176;2023-02-20T11:10:10;24.00;50.40
26186;DHT22;20067;48.764;9.176;2023-02-20T11:12:43;25.20;48.00
26186;DHT22;20067;48.764;9.176;2023-02-20T11:15:13;26.70;45.70
26186;DHT22;20067;48.764;9.176;2023-02-20T11:17:41;26.40;44.60
26186;DHT22;20067;48.764;9.176;2023-02-20T11:20:37;26.30;45.20
26186;DHT22;20067;48.764;9.176;2023-02-20T11:23:05;27.00;43.60
26186;DHT22;20067;48.764;9.176;2023-02-20T11:25:36;25.60;43.80
26186;DHT22;20067;48.764;9.176;2023-02-20T11:28:18;22.10;49.50
26186;DHT22;20067;48.764;9.176;2023-02-20T11:30:48;22.30;49.70
26186;DHT22;20067;48.764;9.176;2023-02-20T11:33:18;22.40;49.80
26186;DHT22;20067;48.764;9.176;2023-02-20T11:35:49;23.10;49.20
26186;DHT22;20067;48.764;9.176;2023-02-20T11:41:27;23.50;48.50
26186;DHT22;20067;48.764;9.176;2023-02-20T11:44:21;22.00;51.20
26186;DHT22;20067;48.764;9.176;2023-02-20T11:47:08;21.40;53.20
26186;DHT22;20067;48.764;9.176;2023-02-20T11:49:34;22.10;52.50
26186;DHT22;20067;48.764;9.176;2023-02-20T11:52:12;21.70;51.80
26186;DHT22;20067;48.764;9.176;2023-02-20T11:54:40;20.20;54.40
26186;DHT22;20067;48.764;9.176;2023-02-20T11:59:43;19.10;56.80
26186;DHT22;20067;48.764;9.176;2023-02-20T12:07:37;17.90;59.90
26186;DHT22;20067;48.764;9.176;2023-02-20T12:12:34;16.70;62.20
26186;DHT22;20067;48.764;9.176;2023-02-20T12:15:00;16.20;63.50
26186;DHT22;20067;48.764;9.176;2023-02-20T12:17:38;16.10;63.70
26186;DHT22;20067;48.764;9.176;2023-02-20T12:20:10;16.00;64.00
26186;DHT22;20067;48.764;9.176;2023-02-20T12:22:44;15.80;64.80
26186;DHT22;20067;48.764;9.176;2023-02-20T12:25:57;15.90;64.50
26186;DHT22;20067;48.764;9.176;2023-02-20T12:47:25;16.00;62.30
26186;DHT22;20067;48.764;9.176;2023-02-20T12:55:50;16.10;61.60
26186;DHT22;20067;48.764;9.176;2023-02-20T12:58:52;16.20;61.40
26186;DHT22;20067;48.764;9.176;2023-02-20T13:01:18;16.30;61.30
26186;DHT22;20067;48.764;9.176;2023-02-20T13:06:39;16.40;60.80
26186;DHT22;20067;48.764;9.176;2023-02-20T13:11:50;16.70;60.60
26186;DHT22;20067;48.764;9.176;2023-02-20T13:17:25;16.60;61.00
26186;DHT22;20067;48.764;9.176;2023-02-20T13:19:59;16.60;60.40
26186;DHT22;20067;48.764;9.176;2023-02-20T13:22:29;16.50;60.20
26186;DHT22;20067;48.764;9.176;2023-02-20T13:30:38;16.50;60.20
26186;DHT22;20067;48.764;9.176;2023-02-20T13:33:24;16.60;59.90
26186;DHT22;20067;48.764;9.176;2023-02-20T13:35:53;16.70;59.10
26186;DHT22;20067;48.764;9.176;2023-02-20T13:38:22;16.70;58.90
26186;DHT22;20067;48.764;9.176;2023-02-20T13:56:48;16.80;56.00
26186;DHT22;20067;48.764;9.176;2023-02-20T13:59:15;16.90;54.20
26186;DHT22;20067;48.764;9.176;2023-02-20T14:04:24;16.90;53.20
26186;DHT22;20067;48.764;9.176;2023-02-20T14:06:52;16.90;53.60
26186;DHT22;20067;48.764;9.176;2023-02-20T14:09:22;16.90;52.20
26186;DHT22;20067;48.764;9.176;2023-02-20T14:12:07;16.90;52.50
26186;DHT22;20067;48.764;9.176;2023-02-20T14:14:41;16.90;51.50
26186;DHT22;20067;48.764;9.176;2023-02-20T14:17:12;16.90;49.10
26186;DHT22;20067;48.764;9.176;2023-02-20T14:19:45;17.00;48.80
26186;DHT22;20067;48.764;9.176;2023-02-20T14:24:59;17.00;47.40
26186;DHT22;20067;48.764;9.176;2023-02-20T14:27:31;16.90;48.30
26186;DHT22;20067;48.764;9.176;2023-02-20T14:32:34;16.90;49.30
26186;DHT22;20067;48.764;9.176;2023-02-20T14:39:08;16.90;49.40
26186;DHT22;20067;48.764;9.176;2023-02-20T14:40:59;17.00;49.60
26186;DHT22;20067;48.764;9.176;2023-02-20T14:43:26;17.00;48.80
26186;DHT22;20067;48.764;9.176;2023-02-20T14:46:19;17.00;49.30
26186;DHT22;20067;48.764;9.176;2023-02-20T14:48:46;17.10;48.50
26186;DHT22;20067;48.764;9.176;2023-02-20T14:51:21;17.00;48.30
26186;DHT22;20067;48.764;9.176;2023-02-20T14:54:00;17.00;48.70
26186;DHT22;20067;48.764;9.176;2023-02-20T14:56:27;17.00;49.40
26186;DHT22;20067;48.764;9.176;2023-02-20T14:58:53;17.00;49.50
26186;DHT22;20067;48.764;9.176;2023-02-20T15:01:35;17.00;49.70
26186;DHT22;20067;48.764;9.176;2023-02-20T15:04:14;17.00;50.20
26186;DHT22;20067;48.764;9.176;2023-02-20T15:06:42;17.00;50.00
26186;DHT22;20067;48.764;9.176;2023-02-20T15:09:09;16.90;50.00
26186;DHT22;20067;48.764;9.176;2023-02-20T15:12:01;16.80;49.60
26186;DHT22;20067;48.764;9.176;2023-02-20T15:14:31;16.70;50.00
26186;DHT22;20067;48.764;9.176;2023-02-20T15:17:24;16.70;50.30
26186;DHT22;20067;48.764;9.176;2023-02-20T15:19:51;16.80;50.40
26186;DHT22;20067;48.764;9.176;2023-02-20T15:22:35;16.80;49.90
26186;DHT22;20067;48.764;9.176;2023-02-20T15:33:28;16.60;49.90
26186;DHT22;20067;48.764;9.176;2023-02-20T15:35:55;16.50;49.90
26186;DHT22;20067;48.764;9.176;2023-02-20T15:38:21;16.50;50.80
26186;DHT22;20067;48.764;9.176;2023-02-20T15:40:48;16.40;51.20
26186;DHT22;20067;48.764;9.176;2023-02-20T15:43:14;16.40;51.10
26186;DHT22;20067;48.764;9.176;2023-02-20T15:45:40;16.40;50.70
26186;DHT22;20067;48.764;9.176;2023-02-20T15:48:06;16.20;50.60
26186;DHT22;20067;48.764;9.176;2023-02-20T15:50:33;16.10;51.30
26186;DHT22;20067;48.764;9.176;2023-02-20T15:53:00;16.10;50.90
26186;DHT22;20067;48.764;9.176;2023-02-20T15:55:32;16.10;51.30
26186;DHT22;20067;48.764;9.176;2023-02-20T15:57:58;16.00;51.70
26186;DHT22;20067;48.764;9.176;2023-02-20T16:00:30;15.90;51.50
26186;DHT22;20067;48.764;9.176;2023-02-20T16:02:58;15.90;51.80
26186;DHT22;20067;48.764;9.176;2023-02-20T16:05:25;15.80;52.20
26186;DHT22;20067;48.764;9.176;2023-02-20T16:07:52;15.80;52.30
26186;DHT22;20067;48.764;9.176;2023-02-20T16:10:20;15.60;52.00
26186;DHT22;20067;48.764;9.176;2023-02-20T16:12:51;15.60;52.70
26186;DHT22;20067;48.764;9.176;2023-02-20T16:15:19;15.40;52.10
26186;DHT22;20067;48.764;9.176;2023-02-20T16:17:50;15.40;52.40
26186;DHT22;20067;48.764;9.176;2023-02-20T16:20:18;15.30;52.80
26186;DHT22;20067;48.764;9.176;2023-02-20T16:22:44;15.40;52.40
26186;DHT22;20067;48.764;9.176;2023-02-20T16:25:13;15.20;52.90
26186;DHT22;20067;48.764;9.176;2023-02-20T16:27:40;15.20;53.30
26186;DHT22;20067;48.764;9.176;2023-02-20T16:30:09;15.20;53.50
26186;DHT22;20067;48.764;9.176;2023-02-20T16:32:38;15.10;53.10
26186;DHT22;20067;48.764;9.176;2023-02-20T16:35:06;15.00;53.90
26186;DHT22;20067;48.764;9.176;2023-02-20T16:37:35;15.10;53.80
26186;DHT22;20067;48.764;9.176;2023-02-20T16:40:01;15.00;54.20
26186;DHT22;20067;48.764;9.176;2023-02-20T16:42:30;14.90;54.60
26186;DHT22;20067;48.764;9.176;2023-02-20T16:44:58;14.70;55.50
26186;DHT22;20067;48.764;9.176;2023-02-20T16:47:28;14.50;56.70
26186;DHT22;20067;48.764;9.176;2023-02-20T16:49:56;14.30;57.40
26186;DHT22;20067;48.764;9.176;2023-02-20T16:52:39;14.20;58.00
26186;DHT22;20067;48.764;9.176;2023-02-20T16:55:27;14.00;58.80
26186;DHT22;20067;48.764;9.176;2023-02-20T16:57:54;13.80;59.20
26186;DHT22;20067;48.764;9.176;2023-02-20T17:00:46;13.70;59.90
26186;DHT22;20067;48.764;9.176;2023-02-20T17:03:11;13.60;60.50
26186;DHT22;20067;48.764;9.176;2023-02-20T17:05:38;13.50;59.90
26186;DHT22;20067;48.764;9.176;2023-02-20T17:08:05;13.30;60.00
26186;DHT22;20067;48.764;9.176;2023-02-20T17:10:31;13.20;59.50
26186;DHT22;20067;48.764;9.176;2023-02-20T17:12:57;13.10;59.30
26186;DHT22;20067;48.764;9.176;2023-02-20T17:15:24;13.10;58.90
26186;DHT22;20067;48.764;9.176;2023-02-20T17:17:51;13.10;58.30
26186;DHT22;20067;48.764;9.176;2023-02-20T17:20:24;13.00;59.00
26186;DHT22;20067;48.764;9.176;2023-02-20T17:22:51;13.00;58.60
26186;DHT22;20067;48.764;9.176;2023-02-20T17:25:19;12.80;60.50
26186;DHT22;20067;48.764;9.176;2023-02-20T17:27:46;12.80;61.10
26186;DHT22;20067;48.764;9.176;2023-02-20T17:30:14;12.90;59.40
26186;DHT22;20067;48.764;9.176;2023-02-20T17:32:40;12.80;59.30
26186;DHT22;20067;48.764;9.176;2023-02-20T17:35:07;12.70;60.00
26186;DHT22;20067;48.764;9.176;2023-02-20T17:37:33;12.60;60.40
26186;DHT22;20067;48.764;9.176;2023-02-20T17:39:59;12.60;59.70
26186;DHT22;20067;48.764;9.176;2023-02-20T17:42:26;12.50;60.00
26186;DHT22;20067;48.764;9.176;2023-02-20T17:44:52;12.50;60.60
26186;DHT22;20067;48.764;9.176;2023-02-20T17:47:20;12.50;61.10
26186;DHT22;20067;48.764;9.176;2023-02-20T17:49:53;12.50;61.00
26186;DHT22;20067;48.764;9.176;2023-02-20T17:52:19;12.40;61.20
26186;DHT22;20067;48.764;9.176;2023-02-20T17:54:46;12.30;61.20
26186;DHT22;20067;48.764;9.176;2023-02-20T17:57:13;12.20;61.20
26186;DHT22;20067;48.764;9.176;2023-02-20T17:59:40;11.90;62.30
26186;DHT22;20067;48.764;9.176;2023-02-20T18:02:07;11.80;62.30
26186;DHT22;20067;48.764;9.176;2023-02-20T18:04:33;11.80;61.60
26186;DHT22;20067;48.764;9.176;2023-02-20T18:06:59;11.70;62.90